Time;durP1;ratioP1;P1;durP2;ratioP2;P2;SDS_P1;SDS_P2;PMS_P1;PMS_P2;Temp;Humidity;BMP_temperature;BMP_pressure;BME280_temperature;BME280_humidity;BME280_pressure;Samples;Min_cycle;Max_cycle;Signal;HPM_P1;HPM_P2
2021/12/31 00:00:19;;;;;;;8.75;2.47;;;13.40;99.90;;;;;;5158412;27;20038;-67
2021/12/31 00:02:45;;;;;;;9.98;2.45;;;13.40;99.90;;;;;;5157726;27;20091;-68
2021/12/31 00:05:11;;;;;;;11.60;2.47;;;13.30;99.90;;;;;;5154521;27;20141;-67
2021/12/31 00:07:37;;;;;;;12.32;2.78;;;13.30;99.90;;;;;;5136507;27;20054;-67
2021/12/31 00:10:03;;;;;;;9.90;2.42;;;13.30;99.90;;;;;;5136752;27;20041;-67
2021/12/31 00:12:30;;;;;;;10.10;2.63;;;13.30;99.90;;;;;;5155404;27;20039;-67
2021/12/31 00:14:57;;;;;;;10.00;2.50;;;13.30;99.90;;;;;;5123347;27;20443;-67
2021/12/31 00:17:24;;;;;;;15.45;3.20;;;13.30;99.90;;;;;;5137282;27;20450;-68
2021/12/31 00:19:59;;;;;;;8.65;2.47;;;13.30;99.90;;;;;;5120114;27;20043;-67
2021/12/31 00:23:26;;;;;;;10.18;2.63;;;13.30;99.90;;;;;;5140032;27;20102;-67
2021/12/31 00:25:20;;;;;;;9.48;2.60;;;13.30;99.90;;;;;;5127718;27;20367;-67
2021/12/31 00:27:46;;;;;;;11.75;2.80;;;13.30;99.90;;;;;;5119493;27;20035;-67
2021/12/31 00:30:12;;;;;;;9.07;2.97;;;13.30;99.90;;;;;;5120442;27;20088;-67
2021/12/31 00:32:37;;;;;;;10.90;2.72;;;13.30;99.90;;;;;;5120621;27;20448;-67
2021/12/31 00:35:04;;;;;;;12.32;2.83;;;13.40;99.90;;;;;;5122407;27;20118;-68
2021/12/31 00:37:36;;;;;;;11.15;2.75;;;13.40;99.90;;;;;;5141164;27;20172;-67
2021/12/31 00:40:05;;;;;;;7.30;2.58;;;13.40;99.90;;;;;;5140772;27;20041;-68
2021/12/31 00:42:30;;;;;;;10.52;2.85;;;13.50;99.90;;;;;;5141050;27;20074;-68
2021/12/31 00:44:56;;;;;;;7.43;2.53;;;13.50;99.90;;;;;;5122930;27;20507;-68
2021/12/31 00:47:22;;;;;;;11.00;3.00;;;13.60;99.90;;;;;;5120103;27;20465;-68
2021/12/31 00:49:47;;;;;;;11.27;3.17;;;13.60;99.90;;;;;;5120102;27;20043;-68
2021/12/31 00:52:14;;;;;;;8.57;2.70;;;13.60;99.90;;;;;;5119923;27;20039;-68
2021/12/31 00:54:40;;;;;;;10.57;2.90;;;13.60;99.90;;;;;;5119799;27;20439;-68
2021/12/31 00:57:06;;;;;;;10.85;2.70;;;13.60;99.90;;;;;;5120736;27;20089;-68
2021/12/31 00:59:32;;;;;;;8.30;2.72;;;13.70;99.90;;;;;;5120192;27;20043;-67
2021/12/31 01:02:04;;;;;;;18.40;2.60;;;13.60;99.90;;;;;;5102697;27;20035;-67
2021/12/31 01:04:30;;;;;;;9.65;2.75;;;13.60;99.90;;;;;;5119898;27;20054;-68
2021/12/31 01:06:57;;;;;;;7.95;2.67;;;13.60;99.90;;;;;;5137397;27;20460;-68
2021/12/31 01:09:23;;;;;;;8.73;2.20;;;13.60;99.90;;;;;;5158963;27;20362;-68
2021/12/31 01:11:49;;;;;;;12.40;2.63;;;13.60;99.90;;;;;;5140564;27;20482;-68
2021/12/31 01:14:29;;;;;;;8.68;2.33;;;13.60;99.90;;;;;;5139904;27;20340;-68
2021/12/31 01:16:59;;;;;;;9.38;2.60;;;13.50;99.90;;;;;;5106188;27;20043;-68
2021/12/31 01:21:53;;;;;;;11.98;2.50;;;13.50;99.90;;;;;;5119476;27;20043;-67
2021/12/31 01:24:19;;;;;;;9.90;2.97;;;13.30;99.90;;;;;;5102489;27;20046;-68
2021/12/31 01:26:45;;;;;;;9.25;3.00;;;13.40;99.90;;;;;;5119299;27;20179;-68
2021/12/31 01:29:11;;;;;;;10.35;2.60;;;13.40;99.90;;;;;;5139986;27;20042;-68
2021/12/31 01:31:37;;;;;;;7.10;2.53;;;13.40;99.90;;;;;;5140044;27;20367;-68
2021/12/31 01:34:02;;;;;;;9.88;2.55;;;13.50;99.90;;;;;;5139783;27;20046;-68
2021/12/31 01:36:28;;;;;;;8.95;2.40;;;13.50;99.90;;;;;;5125752;27;20034;-68
2021/12/31 01:38:54;;;;;;;11.05;2.70;;;13.70;99.90;;;;;;5118899;27;20366;-68
2021/12/31 01:41:21;;;;;;;10.02;2.85;;;13.60;99.90;;;;;;5119580;27;20125;-67
2021/12/31 01:43:47;;;;;;;8.88;2.78;;;13.60;99.90;;;;;;5118811;27;20078;-67
2021/12/31 01:46:13;;;;;;;9.65;2.80;;;13.70;99.90;;;;;;5131316;27;20477;-67
2021/12/31 01:51:25;;;;;;;6.93;2.75;;;13.60;99.90;;;;;;5139763;27;20046;-68
2021/12/31 01:53:50;;;;;;;12.35;2.60;;;13.70;99.90;;;;;;5157801;27;20078;-68
2021/12/31 01:56:18;;;;;;;11.43;3.40;;;13.60;99.90;;;;;;5128252;27;20494;-68
2021/12/31 01:58:49;;;;;;;9.13;3.15;;;13.60;99.90;;;;;;5118910;27;20043;-68
2021/12/31 02:01:15;;;;;;;7.72;2.58;;;13.50;99.90;;;;;;5119046;27;20050;-68
2021/12/31 02:03:40;;;;;;;8.23;2.55;;;13.50;99.90;;;;;;5118821;27;20451;-68
2021/12/31 02:06:06;;;;;;;11.75;3.38;;;13.50;99.90;;;;;;5129048;27;20049;-68
2021/12/31 02:08:32;;;;;;;6.00;2.90;;;13.60;99.90;;;;;;5139691;27;20110;-67
2021/12/31 02:10:58;;;;;;;9.57;3.50;;;13.60;99.90;;;;;;5122250;27;20543;-67
2021/12/31 02:13:25;;;;;;;12.13;3.55;;;13.60;99.90;;;;;;5135534;27;20054;-67
2021/12/31 02:15:52;;;;;;;7.80;3.20;;;13.60;99.90;;;;;;5135029;27;20046;-67
2021/12/31 02:18:18;;;;;;;11.20;3.60;;;13.60;99.90;;;;;;5135477;27;20140;-68
2021/12/31 02:20:46;;;;;;;9.43;4.03;;;13.50;99.90;;;;;;5135536;27;20072;-68
2021/12/31 02:23:16;;;;;;;8.70;3.45;;;13.50;99.90;;;;;;5135517;27;20035;-68
2021/12/31 02:25:42;;;;;;;11.20;4.60;;;13.60;99.90;;;;;;5135026;27;20035;-68
2021/12/31 02:28:08;;;;;;;9.73;4.35;;;13.50;99.90;;;;;;5135425;27;20057;-68
2021/12/31 02:30:34;;;;;;;9.15;4.20;;;13.50;99.90;;;;;;5135780;27;20091;-67
2021/12/31 02:32:59;;;;;;;8.90;3.63;;;13.60;99.90;;;;;;5135155;27;20052;-67
2021/12/31 02:35:26;;;;;;;10.82;4.25;;;13.50;99.90;;;;;;5134039;27;20045;-68
2021/12/31 02:37:52;;;;;;;7.95;4.00;;;13.50;99.90;;;;;;5134943;27;20035;-67
2021/12/31 02:40:19;;;;;;;10.35;4.65;;;13.50;99.90;;;;;;5117998;27;20054;-67
2021/12/31 02:42:46;;;;;;;12.18;4.28;;;13.50;99.90;;;;;;5134969;27;20031;-68
2021/12/31 02:45:13;;;;;;;8.38;4.28;;;13.60;99.90;;;;;;5134197;27;20078;-67
2021/12/31 02:47:44;;;;;;;8.82;4.32;;;13.60;99.90;;;;;;5134868;27;20047;-68
2021/12/31 02:50:13;;;;;;;10.82;4.32;;;13.60;99.90;;;;;;5135552;27;20505;-68
2021/12/31 02:52:39;;;;;;;9.45;4.22;;;13.60;99.90;;;;;;5135009;27;20046;-68
2021/12/31 02:55:05;;;;;;;10.90;4.70;;;13.70;99.90;;;;;;5133427;27;20039;-68
2021/12/31 02:57:31;;;;;;;9.50;4.38;;;13.80;99.90;;;;;;5134521;27;20053;-68
2021/12/31 02:59:57;;;;;;;10.70;4.68;;;13.70;99.90;;;;;;5134853;27;20031;-68
2021/12/31 03:02:25;;;;;;;7.40;4.53;;;13.60;99.90;;;;;;5118155;27;20092;-68
2021/12/31 03:04:55;;;;;;;7.60;4.55;;;13.70;99.90;;;;;;5134956;27;20163;-67
2021/12/31 03:07:23;;;;;;;7.85;4.60;;;13.60;99.90;;;;;;5114300;28;20047;-68
2021/12/31 03:09:51;;;;;;;7.57;4.32;;;13.70;99.90;;;;;;5114072;28;20043;-68
2021/12/31 03:12:17;;;;;;;9.40;4.50;;;13.80;99.90;;;;;;5114103;28;20083;-68
2021/12/31 03:14:44;;;;;;;7.22;4.05;;;13.70;99.90;;;;;;5114033;28;20052;-68
2021/12/31 03:17:12;;;;;;;8.63;4.28;;;13.80;99.90;;;;;;5114110;28;20092;-68
2021/12/31 03:19:38;;;;;;;5.75;3.67;;;13.90;99.90;;;;;;5113880;28;20055;-68
2021/12/31 03:22:04;;;;;;;8.05;4.20;;;13.80;99.90;;;;;;5114016;28;20040;-68
2021/12/31 03:24:30;;;;;;;9.77;4.65;;;13.80;99.90;;;;;;5113959;28;20044;-68
2021/12/31 03:26:55;;;;;;;10.60;4.75;;;13.70;99.90;;;;;;5130860;28;20102;-68
2021/12/31 03:29:22;;;;;;;6.97;4.28;;;13.60;99.90;;;;;;5134811;28;20452;-68
2021/12/31 03:31:47;;;;;;;9.80;4.60;;;13.70;99.90;;;;;;5117640;28;20423;-68
2021/12/31 03:34:16;;;;;;;8.93;4.90;;;13.70;99.90;;;;;;5134433;28;20466;-68
2021/12/31 03:36:42;;;;;;;7.82;4.50;;;13.70;99.90;;;;;;5133303;28;20039;-68
2021/12/31 03:39:08;;;;;;;7.03;4.50;;;13.70;99.90;;;;;;5117214;28;20035;-67
2021/12/31 03:41:34;;;;;;;8.35;4.07;;;13.70;99.90;;;;;;5134522;28;20039;-68
2021/12/31 03:43:59;;;;;;;9.52;4.32;;;13.60;99.90;;;;;;5134562;28;20043;-68
2021/12/31 03:46:25;;;;;;;8.50;4.25;;;13.70;99.90;;;;;;5133614;28;20057;-68
2021/12/31 03:48:51;;;;;;;7.32;5.07;;;13.70;99.90;;;;;;5135035;28;20093;-68
2021/12/31 03:51:16;;;;;;;9.35;5.30;;;13.70;99.90;;;;;;5135426;28;20043;-68
2021/12/31 03:53:42;;;;;;;10.00;4.85;;;13.60;99.90;;;;;;5116901;28;20456;-68
2021/12/31 03:56:08;;;;;;;8.80;4.78;;;13.70;99.90;;;;;;5134168;27;20038;-68
2021/12/31 03:58:33;;;;;;;7.00;4.75;;;13.60;99.90;;;;;;5138174;27;20034;-68
2021/12/31 04:00:59;;;;;;;8.77;4.45;;;13.60;99.90;;;;;;5137864;27;20371;-68
2021/12/31 04:03:25;;;;;;;8.70;4.38;;;13.60;99.90;;;;;;5121253;27;20043;-68
2021/12/31 04:05:50;;;;;;;8.30;4.80;;;13.60;99.90;;;;;;5131156;27;20061;-68
2021/12/31 04:08:16;;;;;;;6.75;3.92;;;13.50;99.90;;;;;;5100679;28;20047;-68
2021/12/31 04:10:43;;;;;;;11.48;4.35;;;13.50;99.90;;;;;;5117570;28;20050;-68
2021/12/31 04:13:09;;;;;;;9.82;4.78;;;13.50;99.90;;;;;;5117175;28;20098;-67
2021/12/31 04:15:35;;;;;;;9.27;3.92;;;13.60;99.90;;;;;;5100127;28;20127;-68
2021/12/31 04:18:00;;;;;;;11.82;4.93;;;13.60;99.90;;;;;;5117576;28;20122;-68
2021/12/31 04:21:01;;;;;;;6.53;3.65;;;13.60;99.90;;;;;;5117770;28;20047;-67
2021/12/31 04:25:54;;;;;;;7.57;3.47;;;13.60;99.90;;;;;;5124866;27;20396;-68
2021/12/31 04:28:19;;;;;;;7.20;3.78;;;13.50;99.90;;;;;;5137639;27;20042;-68
2021/12/31 04:30:45;;;;;;;7.90;3.83;;;13.40;99.90;;;;;;5120880;27;20046;-68
2021/12/31 04:33:10;;;;;;;6.63;3.35;;;13.40;99.90;;;;;;5138157;27;20463;-68
2021/12/31 04:35:36;;;;;;;8.02;3.10;;;13.50;99.90;;;;;;5137813;27;20548;-68
2021/12/31 04:38:02;;;;;;;8.18;3.22;;;13.60;99.90;;;;;;5137567;27;20110;-67
2021/12/31 04:40:27;;;;;;;6.88;3.17;;;13.70;99.90;;;;;;5137732;27;20073;-68
2021/12/31 04:42:53;;;;;;;9.30;2.90;;;13.70;99.90;;;;;;5137423;27;20404;-67
2021/12/31 04:45:19;;;;;;;9.25;3.72;;;13.60;99.90;;;;;;5137507;27;20055;-68
2021/12/31 04:47:44;;;;;;;7.05;3.00;;;13.50;99.90;;;;;;5137604;27;20042;-68
2021/12/31 04:50:10;;;;;;;8.27;3.08;;;13.60;99.90;;;;;;5137423;27;20126;-68
2021/12/31 04:52:37;;;;;;;5.95;2.83;;;13.60;99.90;;;;;;5137335;27;20041;-68
2021/12/31 04:55:03;;;;;;;7.13;2.60;;;13.70;99.90;;;;;;5137345;27;20122;-68
2021/12/31 04:57:29;;;;;;;6.55;2.75;;;13.70;99.90;;;;;;5100057;28;20040;-68
2021/12/31 04:59:55;;;;;;;5.47;2.28;;;13.70;99.90;;;;;;5099616;28;20031;-68
2021/12/31 05:02:20;;;;;;;7.28;2.22;;;13.60;99.90;;;;;;5116670;28;20134;-68
2021/12/31 05:04:46;;;;;;;6.55;2.55;;;13.70;99.90;;;;;;5116551;28;20055;-68
2021/12/31 05:07:12;;;;;;;8.63;2.63;;;13.70;99.90;;;;;;5133754;27;20035;-68
2021/12/31 05:09:38;;;;;;;6.13;2.25;;;13.80;99.90;;;;;;5137158;27;20039;-68
2021/12/31 05:12:05;;;;;;;4.80;2.08;;;13.80;99.90;;;;;;5137035;27;20043;-68
2021/12/31 05:14:31;;;;;;;6.65;2.55;;;13.70;99.90;;;;;;5119487;27;20047;-68
2021/12/31 05:16:58;;;;;;;5.25;2.30;;;13.80;99.90;;;;;;5118591;27;20035;-68
2021/12/31 05:19:24;;;;;;;5.55;2.20;;;13.80;99.90;;;;;;5136806;27;20039;-68
2021/12/31 05:21:50;;;;;;;5.35;2.30;;;13.80;99.90;;;;;;5137047;27;20442;-68
2021/12/31 05:24:16;;;;;;;6.25;2.22;;;13.90;99.90;;;;;;5119701;27;20039;-68
2021/12/31 05:26:42;;;;;;;7.57;2.10;;;13.70;99.90;;;;;;5122930;27;20043;-68
2021/12/31 05:29:08;;;;;;;6.03;2.00;;;13.80;99.90;;;;;;5116134;28;20061;-68
2021/12/31 05:31:34;;;;;;;5.07;1.90;;;13.70;99.90;;;;;;5116154;28;20500;-68
2021/12/31 05:34:00;;;;;;;5.88;2.20;;;13.70;99.90;;;;;;5116098;28;20448;-68
2021/12/31 05:36:25;;;;;;;6.00;2.08;;;13.80;99.90;;;;;;5099415;28;20035;-68
2021/12/31 05:38:51;;;;;;;5.78;2.25;;;13.70;99.90;;;;;;5115542;28;20105;-68
2021/12/31 05:41:17;;;;;;;7.53;2.70;;;13.50;99.90;;;;;;5115641;28;20042;-68
2021/12/31 05:43:42;;;;;;;6.70;2.40;;;13.40;99.90;;;;;;5115993;28;20048;-68
2021/12/31 05:46:08;;;;;;;6.00;2.08;;;13.30;99.90;;;;;;5124793;27;20467;-68
2021/12/31 05:48:34;;;;;;;5.55;2.00;;;13.40;99.90;;;;;;5119089;27;20050;-68
2021/12/31 05:51:00;;;;;;;3.58;1.70;;;13.30;99.90;;;;;;5136318;27;20359;-68
2021/12/31 05:53:26;;;;;;;6.22;2.10;;;13.20;99.90;;;;;;5135974;27;20043;-68
2021/12/31 05:55:52;;;;;;;4.70;1.83;;;13.20;99.90;;;;;;5135494;27;20046;-68
2021/12/31 05:58:17;;;;;;;6.65;2.05;;;13.20;99.90;;;;;;5136418;27;20035;-68
2021/12/31 06:00:43;;;;;;;5.35;1.90;;;13.20;99.90;;;;;;5118902;27;20035;-68
2021/12/31 06:03:08;;;;;;;3.42;1.92;;;13.20;99.90;;;;;;5136010;27;20035;-68
2021/12/31 06:05:36;;;;;;;5.93;1.85;;;13.20;99.90;;;;;;5135464;27;20139;-69
2021/12/31 06:08:01;;;;;;;3.83;1.77;;;13.20;99.90;;;;;;5136188;27;20333;-68
2021/12/31 06:10:27;;;;;;;6.13;2.00;;;13.10;99.90;;;;;;5135809;27;20046;-68
2021/12/31 06:12:57;;;;;;;5.82;1.98;;;13.00;99.90;;;;;;5138420;27;20080;-68
2021/12/31 06:15:25;;;;;;;6.00;2.05;;;13.00;99.90;;;;;;5137560;27;20046;-68
2021/12/31 06:17:51;;;;;;;5.85;1.88;;;13.00;99.90;;;;;;5118596;27;20454;-68
2021/12/31 06:20:16;;;;;;;7.75;2.00;;;13.00;99.90;;;;;;5118236;27;20095;-68
2021/12/31 06:22:42;;;;;;;5.85;2.00;;;13.10;99.90;;;;;;5124779;27;20511;-68
2021/12/31 06:25:08;;;;;;;5.20;2.03;;;13.00;99.90;;;;;;5138954;27;20459;-68
2021/12/31 06:27:34;;;;;;;3.55;1.80;;;13.00;99.90;;;;;;5118760;27;20102;-68
2021/12/31 06:29:59;;;;;;;4.45;2.10;;;13.00;99.90;;;;;;5118609;27;20043;-68
2021/12/31 06:32:25;;;;;;;5.88;2.05;;;12.90;99.90;;;;;;5101665;27;20125;-68
2021/12/31 06:34:50;;;;;;;5.35;2.28;;;12.90;99.90;;;;;;5118240;27;20043;-68
2021/12/31 06:37:16;;;;;;;4.55;1.65;;;12.80;99.90;;;;;;5137297;27;20035;-68
2021/12/31 06:39:44;;;;;;;5.85;2.10;;;12.90;99.90;;;;;;5139149;27;20043;-68
2021/12/31 06:42:09;;;;;;;6.18;2.00;;;12.90;99.90;;;;;;5138776;27;20123;-68
2021/12/31 06:44:36;;;;;;;5.03;2.10;;;12.80;99.90;;;;;;5132510;27;20443;-68
2021/12/31 06:47:03;;;;;;;3.83;1.80;;;12.90;99.90;;;;;;5117745;27;20097;-68
2021/12/31 06:49:29;;;;;;;2.97;1.88;;;12.90;99.90;;;;;;5130523;27;20046;-68
2021/12/31 06:51:55;;;;;;;4.88;2.20;;;12.90;99.90;;;;;;5138662;27;20121;-69
2021/12/31 06:54:21;;;;;;;4.93;1.75;;;13.00;99.90;;;;;;5112531;27;20126;-68
2021/12/31 06:56:46;;;;;;;6.20;1.90;;;13.00;99.90;;;;;;5118122;27;20435;-68
2021/12/31 06:59:12;;;;;;;4.45;2.20;;;12.90;99.90;;;;;;5125537;27;20448;-68
2021/12/31 07:01:37;;;;;;;7.57;2.20;;;12.90;99.90;;;;;;5156593;27;20034;-68
2021/12/31 07:04:03;;;;;;;5.30;2.13;;;12.80;99.90;;;;;;5137228;27;20042;-68
2021/12/31 07:06:29;;;;;;;4.00;2.00;;;12.80;99.90;;;;;;5125330;27;20103;-68
2021/12/31 07:08:55;;;;;;;3.60;1.75;;;12.90;99.90;;;;;;5117048;28;20057;-69
2021/12/31 07:11:22;;;;;;;3.83;2.03;;;12.90;99.90;;;;;;5117919;28;20316;-68
2021/12/31 07:13:51;;;;;;;4.97;2.10;;;12.90;99.90;;;;;;5116962;27;20051;-68
2021/12/31 07:16:17;;;;;;;4.05;2.15;;;12.90;99.90;;;;;;5117618;28;20404;-68
2021/12/31 07:18:43;;;;;;;3.33;1.83;;;12.90;99.90;;;;;;5100760;28;20039;-68
2021/12/31 07:21:09;;;;;;;5.38;2.35;;;13.00;99.90;;;;;;5117617;28;20046;-68
2021/12/31 07:23:35;;;;;;;3.85;1.70;;;13.10;99.90;;;;;;5117762;28;20043;-69
2021/12/31 07:26:00;;;;;;;5.65;2.08;;;13.00;99.90;;;;;;5117597;28;20047;-68
2021/12/31 07:28:27;;;;;;;6.60;2.38;;;13.00;99.90;;;;;;5117557;28;20042;-68
2021/12/31 07:30:53;;;;;;;4.28;2.05;;;12.90;99.90;;;;;;5120424;27;20367;-68
2021/12/31 07:33:22;;;;;;;4.78;2.08;;;12.90;99.90;;;;;;5121566;27;20455;-68
2021/12/31 07:35:49;;;;;;;6.57;2.33;;;12.80;99.90;;;;;;5126620;27;20067;-68
2021/12/31 07:38:24;;;;;;;4.70;2.30;;;12.90;99.90;;;;;;5125258;27;20038;-68
2021/12/31 07:40:51;;;;;;;8.85;2.58;;;13.00;99.90;;;;;;5142582;27;20034;-69
2021/12/31 07:43:18;;;;;;;5.32;2.15;;;12.90;99.90;;;;;;5143078;27;20062;-68
2021/12/31 07:45:44;;;;;;;6.05;2.00;;;12.90;99.90;;;;;;5141085;27;20523;-68
2021/12/31 07:48:10;;;;;;;4.20;2.05;;;12.90;99.90;;;;;;5160250;27;20057;-69
2021/12/31 07:50:36;;;;;;;6.43;2.00;;;12.80;99.90;;;;;;5141943;27;20091;-68
2021/12/31 07:53:04;;;;;;;5.93;1.90;;;12.80;99.90;;;;;;5141976;27;20030;-68
2021/12/31 07:55:30;;;;;;;4.13;1.95;;;12.90;99.90;;;;;;5140151;27;20039;-69
2021/12/31 07:57:56;;;;;;;5.85;2.40;;;12.90;99.90;;;;;;5121281;27;20114;-68
2021/12/31 08:00:22;;;;;;;5.70;2.00;;;13.00;99.90;;;;;;5121518;27;20176;-68
2021/12/31 08:02:48;;;;;;;4.88;2.10;;;13.00;99.90;;;;;;5121265;27;20367;-68
2021/12/31 08:05:14;;;;;;;3.72;1.73;;;13.00;99.90;;;;;;5121681;27;20401;-68
2021/12/31 08:07:40;;;;;;;6.25;2.30;;;13.00;99.90;;;;;;5121145;27;20448;-68
2021/12/31 08:10:06;;;;;;;3.78;2.03;;;13.00;99.90;;;;;;5139369;27;20131;-68
2021/12/31 08:12:35;;;;;;;4.63;2.00;;;13.00;99.90;;;;;;5120927;27;20410;-68
2021/12/31 08:15:02;;;;;;;4.97;1.95;;;13.10;99.90;;;;;;5121317;27;20086;-68
2021/12/31 08:17:28;;;;;;;6.43;2.13;;;13.00;99.90;;;;;;5139231;27;20351;-68
2021/12/31 08:19:53;;;;;;;5.95;2.08;;;13.10;99.90;;;;;;5141740;27;20483;-68
2021/12/31 08:22:22;;;;;;;5.15;2.03;;;13.10;99.90;;;;;;5141541;27;20034;-68
2021/12/31 08:24:47;;;;;;;4.93;2.00;;;13.20;99.90;;;;;;5141621;27;20078;-68
2021/12/31 08:27:13;;;;;;;7.55;2.10;;;13.30;99.90;;;;;;5124223;27;20085;-68
2021/12/31 08:29:39;;;;;;;4.13;1.98;;;13.10;99.90;;;;;;5124268;27;20053;-68
2021/12/31 08:32:05;;;;;;;3.47;1.67;;;13.10;99.90;;;;;;5124013;27;20078;-68
2021/12/31 08:34:31;;;;;;;5.45;2.00;;;13.10;99.90;;;;;;5141146;27;20095;-68
2021/12/31 08:36:56;;;;;;;4.57;2.10;;;13.10;99.90;;;;;;5140211;27;20030;-68
2021/12/31 08:39:22;;;;;;;3.33;1.73;;;13.10;99.90;;;;;;5141445;27;20034;-68
2021/12/31 08:41:48;;;;;;;2.92;1.80;;;13.10;99.90;;;;;;5140288;27;20523;-68
2021/12/31 08:44:14;;;;;;;2.75;1.90;;;13.20;99.90;;;;;;5140318;27;20443;-68
2021/12/31 08:46:40;;;;;;;7.28;2.17;;;13.30;99.90;;;;;;5140903;27;20041;-68
2021/12/31 08:49:06;;;;;;;6.75;2.42;;;13.30;99.90;;;;;;5136945;27;20049;-68
2021/12/31 08:51:32;;;;;;;8.02;2.45;;;13.20;99.90;;;;;;5140776;27;20129;-69
2021/12/31 08:53:57;;;;;;;5.35;2.28;;;13.10;99.90;;;;;;5140748;27;20054;-67
2021/12/31 08:56:23;;;;;;;5.82;2.35;;;13.20;99.90;;;;;;5114342;27;20039;-68
2021/12/31 08:58:49;;;;;;;4.80;2.10;;;13.30;99.90;;;;;;5119709;27;20039;-68
2021/12/31 09:01:15;;;;;;;4.85;2.25;;;13.40;99.90;;;;;;5119271;27;20041;-69
2021/12/31 09:03:40;;;;;;;4.22;1.92;;;13.20;99.90;;;;;;5102126;27;20035;-70
2021/12/31 09:06:07;;;;;;;5.57;1.95;;;13.30;99.90;;;;;;5108554;27;20374;-69
2021/12/31 09:08:34;;;;;;;5.35;2.00;;;13.20;99.90;;;;;;5139312;27;20043;-68
2021/12/31 09:11:00;;;;;;;4.18;1.85;;;13.20;99.90;;;;;;5139673;27;20042;-69
2021/12/31 09:13:27;;;;;;;4.47;2.17;;;13.30;99.90;;;;;;5139270;27;20107;-69
2021/12/31 09:15:53;;;;;;;4.63;2.03;;;13.30;99.90;;;;;;5138899;27;20053;-69
2021/12/31 09:18:19;;;;;;;4.82;2.33;;;13.20;99.90;;;;;;5122504;27;20125;-69
2021/12/31 09:20:45;;;;;;;6.38;2.20;;;13.20;99.90;;;;;;5139622;27;20095;-69
2021/12/31 09:23:11;;;;;;;6.18;2.50;;;13.30;99.90;;;;;;5137979;27;20046;-69
2021/12/31 09:25:37;;;;;;;4.68;2.25;;;13.20;99.90;;;;;;5138727;27;20454;-70
2021/12/31 09:28:03;;;;;;;6.97;2.50;;;13.20;99.90;;;;;;5139752;27;20076;-69
2021/12/31 09:30:31;;;;;;;5.18;2.50;;;13.20;99.90;;;;;;5136631;27;20051;-70
2021/12/31 09:32:57;;;;;;;6.32;2.53;;;13.20;99.90;;;;;;5126704;27;20080;-70
2021/12/31 09:35:22;;;;;;;5.38;3.38;;;13.20;99.90;;;;;;5134430;27;20531;-70
2021/12/31 09:37:48;;;;;;;7.15;2.58;;;13.20;99.90;;;;;;5135627;27;20464;-70
2021/12/31 09:40:18;;;;;;;4.85;2.30;;;13.20;99.90;;;;;;5128064;27;20460;-69
2021/12/31 09:43:16;;;;;;;8.30;2.70;;;13.10;99.90;;;;;;5135209;27;20058;-68
2021/12/31 09:45:47;;;;;;;6.07;2.70;;;13.20;99.90;;;;;;5104276;27;20085;-68
2021/12/31 09:48:19;;;;;;;6.03;2.53;;;13.30;99.90;;;;;;5144755;27;20035;-71
2021/12/31 09:50:48;;;;;;;7.63;2.75;;;13.30;99.90;;;;;;5118795;27;20042;-70
2021/12/31 09:53:15;;;;;;;7.55;3.05;;;13.10;99.90;;;;;;5119211;28;20102;-71
2021/12/31 09:55:45;;;;;;;6.82;2.70;;;13.20;99.90;;;;;;5120270;27;20038;-71
2021/12/31 09:58:13;;;;;;;7.50;2.35;;;13.20;99.90;;;;;;5138801;27;20046;-71
2021/12/31 10:00:42;;;;;;;5.40;2.40;;;13.30;99.90;;;;;;5138377;27;20039;-70
2021/12/31 10:03:17;;;;;;;8.82;3.10;;;13.40;99.90;;;;;;5138678;27;20031;-69
2021/12/31 10:05:46;;;;;;;;;;;13.30;99.90;;;;;;5124316;27;20050;-70
2021/12/31 10:08:14;;;;;;;6.35;2.60;;;13.20;99.90;;;;;;5135632;27;19919;-70
2021/12/31 10:10:39;;;;;;;7.30;2.83;;;13.30;99.90;;;;;;5135286;27;20434;-70
2021/12/31 10:13:07;;;;;;;6.57;2.90;;;13.40;99.90;;;;;;5138418;27;20078;-70
2021/12/31 10:15:38;;;;;;;7.22;3.00;;;13.30;99.90;;;;;;5138805;27;20080;-69
2021/12/31 10:18:15;;;;;;;7.07;3.58;;;13.30;99.90;;;;;;5139312;27;20038;-70
2021/12/31 10:20:49;;;;;;;5.38;3.45;;;13.30;99.90;;;;;;5139086;27;20031;-70
2021/12/31 10:23:16;;;;;;;6.80;3.00;;;13.30;99.90;;;;;;5138749;27;20439;-71
2021/12/31 10:25:42;;;;;;;7.60;4.28;;;13.30;99.90;;;;;;5135804;27;20042;-70
2021/12/31 10:28:12;;;;;;;9.40;4.55;;;13.30;99.90;;;;;;5101074;27;20367;-70
2021/12/31 10:30:39;;;;;;;6.80;3.17;;;13.30;99.90;;;;;;5118099;27;20095;-71
2021/12/31 10:33:06;;;;;;;9.55;4.57;;;13.40;99.90;;;;;;5118323;27;20513;-70
2021/12/31 10:35:45;;;;;;;6.20;3.17;;;13.30;99.90;;;;;;5138945;27;20644;-70
2021/12/31 10:38:12;;;;;;;9.48;3.60;;;13.30;99.90;;;;;;5138690;27;20378;-69
2021/12/31 10:40:46;;;;;;;8.13;3.55;;;13.20;99.90;;;;;;5138593;27;20042;-70
2021/12/31 10:43:18;;;;;;;5.13;3.22;;;13.30;99.90;;;;;;5121055;27;20081;-69
2021/12/31 10:46:09;;;;;;;6.20;3.20;;;13.30;99.90;;;;;;5120367;27;20709;-70
2021/12/31 10:48:46;;;;;;;9.10;5.32;;;13.20;99.90;;;;;;5138165;27;20045;-70
2021/12/31 10:51:17;;;;;;;7.07;3.25;;;13.20;99.90;;;;;;5120264;27;20051;-69
2021/12/31 10:53:51;;;;;;;5.72;3.45;;;13.20;99.90;;;;;;5137459;27;20463;-69
2021/12/31 10:56:17;;;;;;;;;;;13.20;99.90;;;;;;5113485;27;20418;-70
2021/12/31 10:58:57;;;;;;;7.38;3.90;;;13.10;99.90;;;;;;5119036;27;19919;-70
2021/12/31 11:01:23;;;;;;;8.32;3.90;;;13.10;99.90;;;;;;5137458;27;20343;-69
2021/12/31 11:03:49;;;;;;;9.75;3.75;;;13.10;99.90;;;;;;5137885;27;20038;-69
2021/12/31 11:06:16;;;;;;;7.88;3.80;;;13.10;99.90;;;;;;5129721;27;20479;-70
2021/12/31 11:08:47;;;;;;;5.75;3.22;;;13.10;99.90;;;;;;5116844;28;20112;-70
2021/12/31 11:11:19;;;;;;;7.00;3.58;;;13.20;99.90;;;;;;5116729;27;20134;-69
2021/12/31 11:13:48;;;;;;;7.72;3.58;;;13.20;99.90;;;;;;5129262;27;20115;-68
2021/12/31 11:16:16;;;;;;;8.48;3.58;;;13.10;99.90;;;;;;5134145;27;20134;-69
2021/12/31 11:18:43;;;;;;;7.47;3.67;;;13.20;99.90;;;;;;5135105;27;20061;-69
2021/12/31 11:21:11;;;;;;;6.53;3.50;;;13.10;99.90;;;;;;5134271;28;20518;-70
2021/12/31 11:23:37;;;;;;;7.72;3.40;;;13.10;99.90;;;;;;5120157;28;20039;-70
2021/12/31 11:26:05;;;;;;;9.75;4.15;;;13.10;99.90;;;;;;5133162;28;20447;-71
2021/12/31 11:28:38;;;;;;;7.90;3.13;;;13.10;99.90;;;;;;5133462;28;20038;-71
2021/12/31 11:31:16;;;;;;;7.38;4.32;;;13.10;99.90;;;;;;5132972;28;20035;-71
2021/12/31 11:33:43;;;;;;;8.73;4.28;;;13.00;99.90;;;;;;5133470;28;20047;-71
2021/12/31 11:36:11;;;;;;;9.00;3.92;;;13.10;99.90;;;;;;5115388;28;20718;-71
2021/12/31 11:38:43;;;;;;;9.55;5.78;;;13.10;99.90;;;;;;5133296;28;20046;-72
2021/12/31 11:41:23;;;;;;;6.72;4.25;;;13.20;99.90;;;;;;5133125;28;20456;-71
2021/12/31 11:44:09;;;;;;;7.88;3.88;;;13.20;99.90;;;;;;5133317;28;20043;-71
2021/12/31 11:46:41;;;;;;;7.35;3.72;;;13.20;99.90;;;;;;5132457;28;20070;-71
2021/12/31 11:49:26;;;;;;;8.73;4.07;;;13.20;99.90;;;;;;5116040;28;20035;-71
2021/12/31 11:51:59;;;;;;;9.38;3.85;;;13.20;99.90;;;;;;5133134;28;20375;-71
2021/12/31 11:54:26;;;;;;;8.07;4.10;;;13.20;99.90;;;;;;5133263;28;20045;-71
2021/12/31 11:56:53;;;;;;;9.68;4.95;;;13.30;99.90;;;;;;5132589;28;20035;-71
2021/12/31 11:59:21;;;;;;;7.85;4.65;;;13.30;99.90;;;;;;5133501;28;20043;-71
2021/12/31 12:01:53;;;;;;;6.20;3.55;;;13.30;99.90;;;;;;5132919;28;20083;-69
2021/12/31 12:04:23;;;;;;;7.70;4.32;;;13.20;99.90;;;;;;5133147;28;20039;-71
2021/12/31 12:07:28;;;;;;;8.18;3.90;;;13.20;99.90;;;;;;5115086;28;20084;-71
2021/12/31 12:09:53;;;;;;;9.93;4.55;;;13.30;99.90;;;;;;5133244;28;20191;-71
2021/12/31 12:12:26;;;;;;;8.07;4.00;;;13.20;99.90;;;;;;5132988;28;20538;-71
2021/12/31 12:14:54;;;;;;;8.40;4.40;;;13.20;99.90;;;;;;5132846;28;20055;-71
2021/12/31 12:17:29;;;;;;;7.45;4.05;;;13.20;99.90;;;;;;5116396;27;20043;-71
2021/12/31 12:20:00;;;;;;;9.30;4.20;;;13.20;99.90;;;;;;5137064;27;20039;-70
2021/12/31 12:22:56;;;;;;;9.57;5.00;;;13.20;99.90;;;;;;5136300;27;20031;-70
2021/12/31 12:25:26;;;;;;;9.27;3.90;;;13.20;99.90;;;;;;5136823;27;20058;-70
2021/12/31 12:28:13;;;;;;;11.13;3.50;;;13.10;99.90;;;;;;5116906;27;20051;-69
2021/12/31 12:30:47;;;;;;;9.68;4.03;;;13.10;99.90;;;;;;5115948;28;20082;-68
2021/12/31 12:33:19;;;;;;;9.55;4.03;;;13.10;99.90;;;;;;5115902;28;20043;-68
2021/12/31 12:35:47;;;;;;;7.03;3.90;;;13.00;99.90;;;;;;5118460;27;20036;-67
2021/12/31 12:38:19;;;;;;;9.38;4.93;;;12.90;99.90;;;;;;5137654;27;20115;-68
2021/12/31 12:40:58;;;;;;;10.55;4.20;;;12.80;99.90;;;;;;5136418;27;20050;-68
2021/12/31 12:43:35;;;;;;;13.55;4.72;;;12.70;99.90;;;;;;5136295;27;20043;-68
2021/12/31 12:46:10;;;;;;;8.13;4.18;;;12.70;99.90;;;;;;5131911;27;20046;-68
2021/12/31 12:48:42;;;;;;;13.82;4.90;;;12.60;99.90;;;;;;5115957;28;20337;-68
2021/12/31 12:51:11;;;;;;;7.10;4.57;;;12.70;99.90;;;;;;5115268;28;20044;-68
2021/12/31 12:53:39;;;;;;;11.70;5.88;;;12.50;99.90;;;;;;5115240;28;20498;-69
2021/12/31 12:56:08;;;;;;;10.15;5.32;;;12.50;99.90;;;;;;5120052;27;20027;-68